Kota Waris — S6RJ — position and weather

sailwx.info

Track history (hours):
 
Tides and Currents Weather Stations Pressure Air Temp Water Temp Dewpoint Dewpoint Depression Visibility Wind Speed Wind Dir Waves Ship Positions

Kota Waris

Last reported at 2014-Oct-24 18:31 UTC. Time now 2014-Oct-31 12:20 UTC.
Position N 01°16' E 104°09'.

Length 185 m; draft 8.7 m.

Type: Ship (hazmat cat A). MMSI: 564482000.

Date/timePositionNaut miles runAvg speedWind from/ knotsBaromVisibWave heightAir tempDewpointWater temp
2014-Oct-24 18:31N 01°16' E 104°09'1414.9
2014-Oct-24 17:33N 01°13' E 103°55'9 9.1
2014-Oct-24 16:34N 01°15' E 103°46'2 2.1
2014-Oct-24 15:31N 01°17' E 103°46'0 0.0
2014-Oct-24 14:31N 01°17' E 103°46'0 0.0
2014-Oct-24 13:31N 01°17' E 103°46'0 0.0
2014-Oct-24 12:31N 01°17' E 103°46'0 0.0
2014-Oct-24 11:31N 01°17' E 103°46'0 0.0
2014-Oct-24 10:31N 01°17' E 103°46'0 0.0
2014-Oct-24 09:31N 01°17' E 103°46'0 0.0
2014-Oct-24 08:31N 01°17' E 103°46'0 0.0
2014-Oct-24 07:31N 01°17' E 103°46'0 0.0
2014-Oct-24 06:25N 01°17' E 103°46'0 0.0
2014-Oct-24 05:31N 01°17' E 103°46'0 0.0
2014-Oct-24 04:31N 01°17' E 103°46'0 0.0
2014-Oct-24 03:31N 01°17' E 103°46'0 0.0
2014-Oct-24 02:31N 01°17' E 103°46'0 0.0
2014-Oct-24 01:31N 01°17' E 103°46'0 0.0
2014-Oct-24 00:31N 01°17' E 103°46'0 0.0
2014-Oct-23 23:31N 01°17' E 103°46'0 0.0
2014-Oct-23 22:31N 01°17' E 103°46'0 0.0
2014-Oct-23 21:31N 01°17' E 103°46'0 0.0
2014-Oct-23 20:31N 01°17' E 103°46'0 0.0
2014-Oct-23 19:31N 01°17' E 103°46'0 0.0
2014-Oct-23 18:31N 01°17' E 103°46'0 0.0
2014-Oct-23 17:31N 01°17' E 103°46'0 0.0
2014-Oct-23 16:31N 01°17' E 103°46'0 0.0
2014-Oct-23 15:25N 01°17' E 103°46'0 0.0
2014-Oct-23 14:33N 01°17' E 103°46'0 0.0
2014-Oct-23 13:33N 01°17' E 103°46'0 0.0
2014-Oct-23 12:33N 01°17' E 103°46'0 0.0
2014-Oct-23 11:33N 01°17' E 103°46'0 0.0
2014-Oct-23 10:33N 01°17' E 103°46'0 0.0
2014-Oct-23 09:33N 01°17' E 103°46'0 0.0
2014-Oct-23 08:33N 01°17' E 103°46'0 0.0
2014-Oct-23 07:33N 01°17' E 103°46'1 1.0
2014-Oct-23 06:29N 01°16' E 103°46'5 5.2
2014-Oct-23 05:33N 01°12' E 103°50'5 1.6
2014-Oct-23 02:31N 01°15' E 103°53'3 3.4
2014-Oct-23 01:33N 01°14' E 103°57'10 9.9
2014-Oct-23 00:33N 01°17' E 104°06'  
2014-Oct-20 06:17N 16°10' E 108°26'1214.4
2014-Oct-20 05:27N 16°10' E 108°14'3 3.6
2014-Oct-20 04:33N 16°07' E 108°13'0 0.0
2014-Oct-20 03:33N 16°07' E 108°13'0 0.0
2014-Oct-20 02:33N 16°07' E 108°13'0 0.0
2014-Oct-20 01:33N 16°07' E 108°13'0 0.0
2014-Oct-20 00:33N 16°07' E 108°13'0 0.0
2014-Oct-19 23:33N 16°07' E 108°13'0 0.1
2014-Oct-19 22:33N 16°07' E 108°13'5 4.1
2014-Oct-19 21:25N 16°11' E 108°15'10 9.4
2014-Oct-19 20:21N 16°13' E 108°25'1 1.4
2014-Oct-19 19:33N 16°14' E 108°26'3 1.4
2014-Oct-19 17:33N 16°16' E 108°26'6 5.9
2014-Oct-19 16:33N 16°21' E 108°30'261 5.3
2014-Oct-17 15:05N 20°14' E 110°34'1010.1
2014-Oct-17 14:06N 20°12' E 110°24'610.1
2014-Oct-17 13:33N 20°10' E 110°18'1110.4
2014-Oct-17 12:30N 20°09' E 110°06'13311.8
2014-Oct-17 01:13N 21°36' E 108°20'0 0.0
2014-Oct-16 13:32N 21°36' E 108°20'  
Track history (hours):
 
Tides and Currents Weather Stations Pressure Air Temp Water Temp Dewpoint Dewpoint Depression Visibility Wind Speed Wind Dir Waves Ship Positions

Kota Waris

Last reported at 2014-Oct-24 18:31 UTC. Time now 2014-Oct-31 12:20 UTC.
Position N 01°16' E 104°09'.

Length 185 m; draft 8.7 m.

Type: Ship (hazmat cat A). MMSI: 564482000.

Date/timePositionNaut miles runAvg speedWind from/ knotsBaromVisibWave heightAir tempDewpointWater temp
2014-Oct-24 18:31N 01°16' E 104°09'1414.9
2014-Oct-24 17:33N 01°13' E 103°55'9 9.1
2014-Oct-24 16:34N 01°15' E 103°46'2 2.1
2014-Oct-24 15:31N 01°17' E 103°46'0 0.0
2014-Oct-24 14:31N 01°17' E 103°46'0 0.0
2014-Oct-24 13:31N 01°17' E 103°46'0 0.0
2014-Oct-24 12:31N 01°17' E 103°46'0 0.0
2014-Oct-24 11:31N 01°17' E 103°46'0 0.0
2014-Oct-24 10:31N 01°17' E 103°46'0 0.0
2014-Oct-24 09:31N 01°17' E 103°46'0 0.0
2014-Oct-24 08:31N 01°17' E 103°46'0 0.0
2014-Oct-24 07:31N 01°17' E 103°46'0 0.0
2014-Oct-24 06:25N 01°17' E 103°46'0 0.0
2014-Oct-24 05:31N 01°17' E 103°46'0 0.0
2014-Oct-24 04:31N 01°17' E 103°46'0 0.0
2014-Oct-24 03:31N 01°17' E 103°46'0 0.0
2014-Oct-24 02:31N 01°17' E 103°46'0 0.0
2014-Oct-24 01:31N 01°17' E 103°46'0 0.0
2014-Oct-24 00:31N 01°17' E 103°46'0 0.0
2014-Oct-23 23:31N 01°17' E 103°46'0 0.0
2014-Oct-23 22:31N 01°17' E 103°46'0 0.0
2014-Oct-23 21:31N 01°17' E 103°46'0 0.0
2014-Oct-23 20:31N 01°17' E 103°46'0 0.0
2014-Oct-23 19:31N 01°17' E 103°46'0 0.0
2014-Oct-23 18:31N 01°17' E 103°46'0 0.0
2014-Oct-23 17:31N 01°17' E 103°46'0 0.0
2014-Oct-23 16:31N 01°17' E 103°46'0 0.0
2014-Oct-23 15:25N 01°17' E 103°46'0 0.0
2014-Oct-23 14:33N 01°17' E 103°46'0 0.0
2014-Oct-23 13:33N 01°17' E 103°46'0 0.0
2014-Oct-23 12:33N 01°17' E 103°46'0 0.0
2014-Oct-23 11:33N 01°17' E 103°46'0 0.0
2014-Oct-23 10:33N 01°17' E 103°46'0 0.0
2014-Oct-23 09:33N 01°17' E 103°46'0 0.0
2014-Oct-23 08:33N 01°17' E 103°46'0 0.0
2014-Oct-23 07:33N 01°17' E 103°46'1 1.0
2014-Oct-23 06:29N 01°16' E 103°46'5 5.2
2014-Oct-23 05:33N 01°12' E 103°50'5 1.6
2014-Oct-23 02:31N 01°15' E 103°53'3 3.4
2014-Oct-23 01:33N 01°14' E 103°57'10 9.9
2014-Oct-23 00:33N 01°17' E 104°06'  
2014-Oct-20 06:17N 16°10' E 108°26'1214.4
2014-Oct-20 05:27N 16°10' E 108°14'3 3.6
2014-Oct-20 04:33N 16°07' E 108°13'0 0.0
2014-Oct-20 03:33N 16°07' E 108°13'0 0.0
2014-Oct-20 02:33N 16°07' E 108°13'0 0.0
2014-Oct-20 01:33N 16°07' E 108°13'0 0.0
2014-Oct-20 00:33N 16°07' E 108°13'0 0.0
2014-Oct-19 23:33N 16°07' E 108°13'0 0.1
2014-Oct-19 22:33N 16°07' E 108°13'5 4.1
2014-Oct-19 21:25N 16°11' E 108°15'10 9.4
2014-Oct-19 20:21N 16°13' E 108°25'1 1.4
2014-Oct-19 19:33N 16°14' E 108°26'3 1.4
2014-Oct-19 17:33N 16°16' E 108°26'6 5.9
2014-Oct-19 16:33N 16°21' E 108°30'261 5.3
2014-Oct-17 15:05N 20°14' E 110°34'1010.1
2014-Oct-17 14:06N 20°12' E 110°24'610.1
2014-Oct-17 13:33N 20°10' E 110°18'1110.4
2014-Oct-17 12:30N 20°09' E 110°06'13311.8
2014-Oct-17 01:13N 21°36' E 108°20'0 0.0
2014-Oct-16 13:32N 21°36' E 108°20'  

Dump ship's entire track history